createdAt,value
2023-05-22T00:00:00.000Z,13.63
2023-05-22T00:15:00.000Z,13.8
2023-05-22T00:30:00.000Z,13.96
2023-05-22T00:45:00.000Z,13.78
2023-05-22T01:00:00.000Z,13.73
2023-05-22T01:15:00.000Z,13.46
2023-05-22T01:30:00.000Z,13.78
2023-05-22T01:45:00.000Z,13.59
2023-05-22T02:00:00.000Z,14.23
2023-05-22T02:15:00.000Z,14
2023-05-22T02:30:00.000Z,13.51
2023-05-22T02:45:00.000Z,14.29
2023-05-22T03:00:00.000Z,13.85
2023-05-22T03:15:00.000Z,14
2023-05-22T03:30:00.000Z,13.66
2023-05-22T03:45:00.000Z,13.47
2023-05-22T04:00:00.000Z,13.7
2023-05-22T04:15:00.000Z,13.98
2023-05-22T04:30:00.000Z,13.66
2023-05-22T04:45:00.000Z,13.24
2023-05-22T05:00:00.000Z,13.19
2023-05-22T05:15:00.000Z,13.17
2023-05-22T05:30:00.000Z,13.1
2023-05-22T05:45:00.000Z,13.19
2023-05-22T06:00:00.000Z,12.37
2023-05-22T06:15:00.000Z,12.54
2023-05-22T06:30:00.000Z,12.28
2023-05-22T06:45:00.000Z,10.84
2023-05-22T07:00:00.000Z,10.21
2023-05-22T07:15:00.000Z,10.06
2023-05-22T07:30:00.000Z,10.01
2023-05-22T07:45:00.000Z,9.81
2023-05-22T08:00:00.000Z,11.66
2023-05-22T08:15:00.000Z,9.51
2023-05-22T08:30:00.000Z,11.88
2023-05-22T08:45:00.000Z,10.16
2023-05-22T09:00:00.000Z,9.09
2023-05-22T09:15:00.000Z,10.4
2023-05-22T09:30:00.000Z,10.03
2023-05-22T09:45:00.000Z,10.03
2023-05-22T10:00:00.000Z,10.39
2023-05-22T10:15:00.000Z,10.76
2023-05-22T10:30:00.000Z,10.27
2023-05-22T10:45:00.000Z,10.17
2023-05-22T11:00:00.000Z,10.47
2023-05-22T11:15:00.000Z,9.63
2023-05-22T11:30:00.000Z,10.12
2023-05-22T11:45:00.000Z,9.98
2023-05-22T12:00:00.000Z,10.06
2023-05-22T12:15:00.000Z,9.97
2023-05-22T12:30:00.000Z,9.76
2023-05-22T12:45:00.000Z,10.07
2023-05-22T13:00:00.000Z,10.23
2023-05-22T13:15:00.000Z,10.14
2023-05-22T13:30:00.000Z,9.73
2023-05-22T13:45:00.000Z,10.12
2023-05-22T14:00:00.000Z,10.12
2023-05-22T14:15:00.000Z,9.86
2023-05-22T14:30:00.000Z,9.89
2023-05-22T14:45:00.000Z,9.37
2023-05-22T15:00:00.000Z,9.3
2023-05-22T15:15:00.000Z,9.12
2023-05-22T15:30:00.000Z,9.49
2023-05-22T15:45:00.000Z,10.11
2023-05-22T16:00:00.000Z,10.13
2023-05-22T16:15:00.000Z,10.3
2023-05-22T16:30:00.000Z,10.63
2023-05-22T16:45:00.000Z,10.42
2023-05-22T17:00:00.000Z,10.22
2023-05-22T17:15:00.000Z,10.83
2023-05-22T17:30:00.000Z,10.86
2023-05-22T17:45:00.000Z,12.14
2023-05-22T18:00:00.000Z,14.34
2023-05-22T18:15:00.000Z,16.77
2023-05-22T18:30:00.000Z,16.49
2023-05-22T18:45:00.000Z,16.69
2023-05-22T19:00:00.000Z,17.12
2023-05-22T19:15:00.000Z,15.51
2023-05-22T19:30:00.000Z,18
2023-05-22T19:45:00.000Z,19.78
2023-05-22T20:00:00.000Z,20.09
2023-05-22T20:15:00.000Z,20.93
2023-05-22T20:30:00.000Z,24.42
2023-05-22T20:45:00.000Z,20.43
2023-05-22T21:00:00.000Z,16.41
2023-05-22T21:15:00.000Z,15.36
2023-05-22T21:30:00.000Z,15.33
2023-05-22T21:45:00.000Z,15.16
2023-05-22T22:00:00.000Z,15.66
2023-05-22T22:15:00.000Z,16.27
2023-05-22T22:30:00.000Z,15.81
2023-05-22T22:45:00.000Z,16.02
2023-05-22T23:00:00.000Z,16.41
2023-05-22T23:15:00.000Z,16.71
2023-05-22T23:30:00.000Z,16.78
2023-05-22T23:45:00.000Z,16.74
